sensor_id;sensor_type;location;lat;lon;timestamp;P1;durP1;ratioP1;P2;durP2;ratioP2
58972;SDS011;44750;52.040;7.472;2022-11-15T00:01:59;5.72;;;3.17;;
58972;SDS011;44750;52.040;7.472;2022-11-15T00:07:01;4.85;;;2.75;;
58972;SDS011;44750;52.040;7.472;2022-11-15T00:12:01;2.78;;;2.42;;
58972;SDS011;44750;52.040;7.472;2022-11-15T00:17:02;5.60;;;3.13;;
58972;SDS011;44750;52.040;7.472;2022-11-15T00:22:02;4.43;;;3.20;;
58972;SDS011;44750;52.040;7.472;2022-11-15T00:27:02;3.45;;;2.88;;
58972;SDS011;44750;52.040;7.472;2022-11-15T00:32:02;5.90;;;3.65;;
58972;SDS011;44750;52.040;7.472;2022-11-15T00:37:03;2.65;;;2.45;;
58972;SDS011;44750;52.040;7.472;2022-11-15T00:42:03;7.10;;;3.35;;
58972;SDS011;44750;52.040;7.472;2022-11-15T00:47:03;5.85;;;2.80;;
58972;SDS011;44750;52.040;7.472;2022-11-15T00:52:03;2.78;;;2.03;;
58972;SDS011;44750;52.040;7.472;2022-11-15T00:57:04;7.80;;;2.85;;
58972;SDS011;44750;52.040;7.472;2022-11-15T01:02:04;7.75;;;2.72;;
58972;SDS011;44750;52.040;7.472;2022-11-15T01:07:04;5.20;;;3.17;;
58972;SDS011;44750;52.040;7.472;2022-11-15T01:12:04;4.05;;;2.97;;
58972;SDS011;44750;52.040;7.472;2022-11-15T01:17:05;2.50;;;2.03;;
58972;SDS011;44750;52.040;7.472;2022-11-15T01:22:05;5.22;;;3.15;;
58972;SDS011;44750;52.040;7.472;2022-11-15T01:27:05;4.75;;;2.97;;
58972;SDS011;44750;52.040;7.472;2022-11-15T01:32:05;3.47;;;2.25;;
58972;SDS011;44750;52.040;7.472;2022-11-15T01:37:06;4.27;;;2.60;;
58972;SDS011;44750;52.040;7.472;2022-11-15T01:42:09;7.10;;;2.75;;
58972;SDS011;44750;52.040;7.472;2022-11-15T01:47:13;3.38;;;2.67;;
58972;SDS011;44750;52.040;7.472;2022-11-15T01:52:41;2.80;;;2.30;;
58972;SDS011;44750;52.040;7.472;2022-11-15T01:57:42;5.43;;;2.63;;
58972;SDS011;44750;52.040;7.472;2022-11-15T02:02:46;3.50;;;2.73;;
58972;SDS011;44750;52.040;7.472;2022-11-15T02:07:46;4.25;;;2.30;;
58972;SDS011;44750;52.040;7.472;2022-11-15T02:12:47;3.63;;;2.75;;
58972;SDS011;44750;52.040;7.472;2022-11-15T02:17:58;5.43;;;3.75;;
58972;SDS011;44750;52.040;7.472;2022-11-15T02:28:55;4.18;;;2.67;;
58972;SDS011;44750;52.040;7.472;2022-11-15T02:34:09;3.17;;;2.42;;
58972;SDS011;44750;52.040;7.472;2022-11-15T02:44:50;3.60;;;2.40;;
58972;SDS011;44750;52.040;7.472;2022-11-15T02:49:53;3.67;;;2.35;;
58972;SDS011;44750;52.040;7.472;2022-11-15T02:54:57;3.60;;;3.05;;
58972;SDS011;44750;52.040;7.472;2022-11-15T03:00:09;3.28;;;2.67;;
58972;SDS011;44750;52.040;7.472;2022-11-15T03:11:08;3.33;;;2.80;;
58972;SDS011;44750;52.040;7.472;2022-11-15T03:16:15;4.40;;;2.47;;
58972;SDS011;44750;52.040;7.472;2022-11-15T03:21:24;3.75;;;2.75;;
58972;SDS011;44750;52.040;7.472;2022-11-15T03:26:28;3.38;;;2.78;;
58972;SDS011;44750;52.040;7.472;2022-11-15T03:31:30;4.80;;;3.20;;
58972;SDS011;44750;52.040;7.472;2022-11-15T03:36:37;5.45;;;3.25;;
58972;SDS011;44750;52.040;7.472;2022-11-15T03:41:39;4.00;;;2.67;;
58972;SDS011;44750;52.040;7.472;2022-11-15T03:46:47;10.25;;;3.13;;
58972;SDS011;44750;52.040;7.472;2022-11-15T03:51:57;3.72;;;2.47;;
58972;SDS011;44750;52.040;7.472;2022-11-15T03:56:59;7.05;;;2.40;;
58972;SDS011;44750;52.040;7.472;2022-11-15T04:01:59;3.67;;;3.08;;
58972;SDS011;44750;52.040;7.472;2022-11-15T04:06:59;3.65;;;2.63;;
58972;SDS011;44750;52.040;7.472;2022-11-15T04:11:59;3.25;;;2.22;;
58972;SDS011;44750;52.040;7.472;2022-11-15T04:16:59;4.95;;;2.65;;
58972;SDS011;44750;52.040;7.472;2022-11-15T04:22:00;3.08;;;2.38;;
58972;SDS011;44750;52.040;7.472;2022-11-15T04:27:00;4.13;;;2.75;;
58972;SDS011;44750;52.040;7.472;2022-11-15T04:32:01;9.20;;;2.90;;
58972;SDS011;44750;52.040;7.472;2022-11-15T04:37:02;4.13;;;2.88;;
58972;SDS011;44750;52.040;7.472;2022-11-15T04:42:02;5.18;;;2.42;;
58972;SDS011;44750;52.040;7.472;2022-11-15T04:47:03;5.57;;;2.72;;
58972;SDS011;44750;52.040;7.472;2022-11-15T04:52:03;5.30;;;2.50;;
58972;SDS011;44750;52.040;7.472;2022-11-15T04:57:04;5.40;;;2.00;;
58972;SDS011;44750;52.040;7.472;2022-11-15T05:02:04;2.85;;;2.13;;
58972;SDS011;44750;52.040;7.472;2022-11-15T05:07:04;2.65;;;2.10;;
58972;SDS011;44750;52.040;7.472;2022-11-15T05:12:04;4.10;;;2.25;;
58972;SDS011;44750;52.040;7.472;2022-11-15T05:17:05;3.70;;;2.10;;
58972;SDS011;44750;52.040;7.472;2022-11-15T05:22:05;3.88;;;1.90;;
58972;SDS011;44750;52.040;7.472;2022-11-15T05:27:05;3.22;;;1.90;;
58972;SDS011;44750;52.040;7.472;2022-11-15T05:32:05;3.67;;;2.08;;
58972;SDS011;44750;52.040;7.472;2022-11-15T05:37:08;1.90;;;1.58;;
58972;SDS011;44750;52.040;7.472;2022-11-15T05:42:09;3.77;;;2.30;;
58972;SDS011;44750;52.040;7.472;2022-11-15T05:47:12;1.98;;;1.77;;
58972;SDS011;44750;52.040;7.472;2022-11-15T05:52:20;3.40;;;2.55;;
58972;SDS011;44750;52.040;7.472;2022-11-15T05:57:24;3.47;;;2.08;;
58972;SDS011;44750;52.040;7.472;2022-11-15T06:02:25;3.42;;;2.30;;
58972;SDS011;44750;52.040;7.472;2022-11-15T06:07:25;8.13;;;3.35;;
58972;SDS011;44750;52.040;7.472;2022-11-15T06:12:25;6.53;;;1.85;;
58972;SDS011;44750;52.040;7.472;2022-11-15T06:17:25;2.50;;;2.17;;
58972;SDS011;44750;52.040;7.472;2022-11-15T06:22:26;4.90;;;2.15;;
58972;SDS011;44750;52.040;7.472;2022-11-15T06:27:26;4.65;;;1.95;;
58972;SDS011;44750;52.040;7.472;2022-11-15T06:32:28;6.03;;;2.67;;
58972;SDS011;44750;52.040;7.472;2022-11-15T06:37:29;3.20;;;2.35;;
58972;SDS011;44750;52.040;7.472;2022-11-15T06:42:29;3.78;;;2.47;;
58972;SDS011;44750;52.040;7.472;2022-11-15T06:47:29;3.13;;;2.58;;
58972;SDS011;44750;52.040;7.472;2022-11-15T06:52:29;5.10;;;2.47;;
58972;SDS011;44750;52.040;7.472;2022-11-15T06:57:30;3.25;;;2.15;;
58972;SDS011;44750;52.040;7.472;2022-11-15T07:02:33;2.38;;;1.70;;
58972;SDS011;44750;52.040;7.472;2022-11-15T07:07:33;14.93;;;2.65;;
58972;SDS011;44750;52.040;7.472;2022-11-15T07:12:33;2.90;;;2.05;;
58972;SDS011;44750;52.040;7.472;2022-11-15T07:17:34;2.45;;;2.25;;
58972;SDS011;44750;52.040;7.472;2022-11-15T07:22:34;3.28;;;2.45;;
58972;SDS011;44750;52.040;7.472;2022-11-15T07:27:34;3.65;;;2.72;;
58972;SDS011;44750;52.040;7.472;2022-11-15T07:32:35;3.67;;;2.05;;
58972;SDS011;44750;52.040;7.472;2022-11-15T07:37:35;2.40;;;1.73;;
58972;SDS011;44750;52.040;7.472;2022-11-15T07:42:35;2.13;;;1.75;;
58972;SDS011;44750;52.040;7.472;2022-11-15T07:47:35;3.10;;;1.90;;
58972;SDS011;44750;52.040;7.472;2022-11-15T07:52:35;2.97;;;2.35;;
58972;SDS011;44750;52.040;7.472;2022-11-15T07:57:36;3.08;;;2.17;;
58972;SDS011;44750;52.040;7.472;2022-11-15T08:02:37;2.25;;;1.58;;
58972;SDS011;44750;52.040;7.472;2022-11-15T08:07:37;3.63;;;2.53;;
58972;SDS011;44750;52.040;7.472;2022-11-15T08:12:37;3.55;;;1.80;;
58972;SDS011;44750;52.040;7.472;2022-11-15T08:17:37;2.67;;;2.28;;
58972;SDS011;44750;52.040;7.472;2022-11-15T08:22:38;3.03;;;2.13;;
58972;SDS011;44750;52.040;7.472;2022-11-15T08:27:38;3.63;;;2.63;;
58972;SDS011;44750;52.040;7.472;2022-11-15T08:32:38;2.40;;;1.80;;
58972;SDS011;44750;52.040;7.472;2022-11-15T08:37:38;3.78;;;2.20;;
58972;SDS011;44750;52.040;7.472;2022-11-15T08:42:39;3.25;;;2.45;;
58972;SDS011;44750;52.040;7.472;2022-11-15T08:47:39;2.30;;;1.67;;
58972;SDS011;44750;52.040;7.472;2022-11-15T08:52:39;2.67;;;1.70;;
58972;SDS011;44750;52.040;7.472;2022-11-15T08:57:39;1.63;;;1.38;;
58972;SDS011;44750;52.040;7.472;2022-11-15T09:02:40;2.25;;;1.60;;
58972;SDS011;44750;52.040;7.472;2022-11-15T09:07:40;2.22;;;1.52;;
58972;SDS011;44750;52.040;7.472;2022-11-15T09:12:40;1.30;;;1.20;;
58972;SDS011;44750;52.040;7.472;2022-11-15T09:17:43;1.15;;;0.90;;
58972;SDS011;44750;52.040;7.472;2022-11-15T09:22:43;1.85;;;1.55;;
58972;SDS011;44750;52.040;7.472;2022-11-15T09:27:44;1.25;;;0.63;;
58972;SDS011;44750;52.040;7.472;2022-11-15T09:32:44;3.38;;;0.80;;
58972;SDS011;44750;52.040;7.472;2022-11-15T09:37:44;5.25;;;0.80;;
58972;SDS011;44750;52.040;7.472;2022-11-15T09:58:34;0.73;;;0.60;;
58972;SDS011;44750;52.040;7.472;2022-11-15T10:03:39;2.03;;;0.98;;
58972;SDS011;44750;52.040;7.472;2022-11-15T10:13:50;0.30;;;0.30;;
58972;SDS011;44750;52.040;7.472;2022-11-15T10:24:28;0.80;;;0.43;;
58972;SDS011;44750;52.040;7.472;2022-11-15T10:29:35;0.25;;;0.22;;
58972;SDS011;44750;52.040;7.472;2022-11-15T10:34:35;0.20;;;0.20;;
58972;SDS011;44750;52.040;7.472;2022-11-15T10:39:36;0.20;;;0.20;;
58972;SDS011;44750;52.040;7.472;2022-11-15T10:44:41;0.40;;;0.32;;
58972;SDS011;44750;52.040;7.472;2022-11-15T10:49:52;0.20;;;0.17;;
58972;SDS011;44750;52.040;7.472;2022-11-15T11:00:26;0.57;;;0.47;;
58972;SDS011;44750;52.040;7.472;2022-11-15T11:05:33;0.50;;;0.30;;
58972;SDS011;44750;52.040;7.472;2022-11-15T11:10:35;0.30;;;0.30;;
58972;SDS011;44750;52.040;7.472;2022-11-15T11:15:35;0.30;;;0.30;;
58972;SDS011;44750;52.040;7.472;2022-11-15T11:20:40;6.30;;;0.80;;
58972;SDS011;44750;52.040;7.472;2022-11-15T11:31:06;0.52;;;0.40;;
58972;SDS011;44750;52.040;7.472;2022-11-15T11:36:49;0.50;;;0.50;;
58972;SDS011;44750;52.040;7.472;2022-11-15T11:42:10;0.68;;;0.45;;
58972;SDS011;44750;52.040;7.472;2022-11-15T11:47:20;0.68;;;0.55;;
58972;SDS011;44750;52.040;7.472;2022-11-15T11:52:24;0.88;;;0.80;;
58972;SDS011;44750;52.040;7.472;2022-11-15T11:57:45;0.30;;;0.30;;
58972;SDS011;44750;52.040;7.472;2022-11-15T12:13:26;0.30;;;0.30;;
58972;SDS011;44750;52.040;7.472;2022-11-15T12:18:30;0.20;;;0.20;;
58972;SDS011;44750;52.040;7.472;2022-11-15T12:23:31;0.50;;;0.50;;
58972;SDS011;44750;52.040;7.472;2022-11-15T12:28:42;0.30;;;0.30;;
58972;SDS011;44750;52.040;7.472;2022-11-15T12:33:47;0.30;;;0.30;;
58972;SDS011;44750;52.040;7.472;2022-11-15T12:38:58;0.35;;;0.35;;
58972;SDS011;44750;52.040;7.472;2022-11-15T12:44:01;0.30;;;0.30;;
58972;SDS011;44750;52.040;7.472;2022-11-15T12:54:49;0.38;;;0.30;;
58972;SDS011;44750;52.040;7.472;2022-11-15T12:59:54;0.22;;;0.20;;
58972;SDS011;44750;52.040;7.472;2022-11-15T13:20:37;0.20;;;0.20;;
58972;SDS011;44750;52.040;7.472;2022-11-15T13:36:29;3.38;;;0.50;;
58972;SDS011;44750;52.040;7.472;2022-11-15T13:41:32;0.10;;;0.10;;
58972;SDS011;44750;52.040;7.472;2022-11-15T13:46:34;0.13;;;0.13;;
58972;SDS011;44750;52.040;7.472;2022-11-15T13:51:47;0.75;;;0.57;;
58972;SDS011;44750;52.040;7.472;2022-11-15T13:56:58;0.30;;;0.30;;
58972;SDS011;44750;52.040;7.472;2022-11-15T14:02:12;0.25;;;0.25;;
58972;SDS011;44750;52.040;7.472;2022-11-15T14:07:19;0.45;;;0.45;;
58972;SDS011;44750;52.040;7.472;2022-11-15T14:12:32;1.55;;;0.63;;
58972;SDS011;44750;52.040;7.472;2022-11-15T14:17:35;1.23;;;0.40;;
58972;SDS011;44750;52.040;7.472;2022-11-15T14:22:37;1.08;;;0.65;;
58972;SDS011;44750;52.040;7.472;2022-11-15T14:38:47;0.32;;;0.32;;
58972;SDS011;44750;52.040;7.472;2022-11-15T14:43:48;0.50;;;0.50;;
58972;SDS011;44750;52.040;7.472;2022-11-15T14:48:48;0.90;;;0.35;;
58972;SDS011;44750;52.040;7.472;2022-11-15T14:53:48;3.63;;;0.55;;
58972;SDS011;44750;52.040;7.472;2022-11-15T14:58:49;1.00;;;0.60;;
58972;SDS011;44750;52.040;7.472;2022-11-15T15:03:49;0.30;;;0.20;;
58972;SDS011;44750;52.040;7.472;2022-11-15T15:08:49;0.68;;;0.40;;
58972;SDS011;44750;52.040;7.472;2022-11-15T15:13:50;0.20;;;0.20;;
58972;SDS011;44750;52.040;7.472;2022-11-15T15:18:50;0.52;;;0.43;;
58972;SDS011;44750;52.040;7.472;2022-11-15T15:23:51;0.43;;;0.43;;
58972;SDS011;44750;52.040;7.472;2022-11-15T15:28:52;0.52;;;0.38;;
58972;SDS011;44750;52.040;7.472;2022-11-15T15:33:52;0.95;;;0.63;;
58972;SDS011;44750;52.040;7.472;2022-11-15T15:38:55;0.40;;;0.40;;
58972;SDS011;44750;52.040;7.472;2022-11-15T15:43:55;1.23;;;1.13;;
58972;SDS011;44750;52.040;7.472;2022-11-15T15:48:55;0.63;;;0.55;;
58972;SDS011;44750;52.040;7.472;2022-11-15T15:53:55;0.30;;;0.30;;
58972;SDS011;44750;52.040;7.472;2022-11-15T15:58:55;0.70;;;0.45;;
58972;SDS011;44750;52.040;7.472;2022-11-15T16:03:56;0.20;;;0.20;;
58972;SDS011;44750;52.040;7.472;2022-11-15T16:08:56;0.50;;;0.30;;
58972;SDS011;44750;52.040;7.472;2022-11-15T16:13:56;0.30;;;0.30;;
58972;SDS011;44750;52.040;7.472;2022-11-15T16:18:56;0.93;;;0.68;;
58972;SDS011;44750;52.040;7.472;2022-11-15T16:23:57;0.98;;;0.75;;
58972;SDS011;44750;52.040;7.472;2022-11-15T16:28:57;0.90;;;0.63;;
58972;SDS011;44750;52.040;7.472;2022-11-15T16:33:57;1.07;;;0.60;;
58972;SDS011;44750;52.040;7.472;2022-11-15T16:38:58;0.68;;;0.40;;
58972;SDS011;44750;52.040;7.472;2022-11-15T16:43:59;0.85;;;0.65;;
58972;SDS011;44750;52.040;7.472;2022-11-15T16:48:59;1.00;;;0.70;;
58972;SDS011;44750;52.040;7.472;2022-11-15T16:53:59;1.13;;;0.70;;
58972;SDS011;44750;52.040;7.472;2022-11-15T16:59:00;1.08;;;0.55;;
58972;SDS011;44750;52.040;7.472;2022-11-15T17:04:01;0.63;;;0.63;;
58972;SDS011;44750;52.040;7.472;2022-11-15T17:09:02;1.02;;;0.73;;
58972;SDS011;44750;52.040;7.472;2022-11-15T17:14:03;4.53;;;1.20;;
58972;SDS011;44750;52.040;7.472;2022-11-15T17:19:03;1.60;;;1.15;;
58972;SDS011;44750;52.040;7.472;2022-11-15T17:24:04;0.70;;;0.40;;
58972;SDS011;44750;52.040;7.472;2022-11-15T17:29:04;0.90;;;0.70;;
58972;SDS011;44750;52.040;7.472;2022-11-15T17:34:05;2.80;;;1.23;;
58972;SDS011;44750;52.040;7.472;2022-11-15T17:39:05;0.47;;;0.47;;
58972;SDS011;44750;52.040;7.472;2022-11-15T17:44:06;3.15;;;0.95;;
58972;SDS011;44750;52.040;7.472;2022-11-15T17:49:06;1.58;;;0.80;;
58972;SDS011;44750;52.040;7.472;2022-11-15T17:54:08;1.27;;;0.90;;
58972;SDS011;44750;52.040;7.472;2022-11-15T17:59:09;1.35;;;1.17;;
58972;SDS011;44750;52.040;7.472;2022-11-15T18:04:10;1.27;;;0.80;;
58972;SDS011;44750;52.040;7.472;2022-11-15T18:09:10;2.15;;;1.00;;
58972;SDS011;44750;52.040;7.472;2022-11-15T18:14:14;0.60;;;0.60;;
58972;SDS011;44750;52.040;7.472;2022-11-15T18:19:14;0.98;;;0.82;;
58972;SDS011;44750;52.040;7.472;2022-11-15T18:24:14;1.45;;;1.13;;
58972;SDS011;44750;52.040;7.472;2022-11-15T18:29:14;0.75;;;0.60;;
58972;SDS011;44750;52.040;7.472;2022-11-15T18:34:15;6.03;;;1.00;;
58972;SDS011;44750;52.040;7.472;2022-11-15T18:39:15;1.75;;;0.88;;
58972;SDS011;44750;52.040;7.472;2022-11-15T18:44:16;1.02;;;0.80;;
58972;SDS011;44750;52.040;7.472;2022-11-15T18:49:16;0.95;;;0.77;;
58972;SDS011;44750;52.040;7.472;2022-11-15T18:54:17;2.90;;;1.10;;
58972;SDS011;44750;52.040;7.472;2022-11-15T18:59:17;2.30;;;1.55;;
58972;SDS011;44750;52.040;7.472;2022-11-15T19:04:18;0.68;;;0.68;;
58972;SDS011;44750;52.040;7.472;2022-11-15T19:09:19;0.85;;;0.60;;
58972;SDS011;44750;52.040;7.472;2022-11-15T19:14:19;1.30;;;1.00;;
58972;SDS011;44750;52.040;7.472;2022-11-15T19:19:23;1.10;;;0.75;;
58972;SDS011;44750;52.040;7.472;2022-11-15T19:24:24;1.17;;;1.00;;
58972;SDS011;44750;52.040;7.472;2022-11-15T19:29:25;2.43;;;0.90;;
58972;SDS011;44750;52.040;7.472;2022-11-15T19:34:26;1.25;;;0.82;;
58972;SDS011;44750;52.040;7.472;2022-11-15T19:39:26;2.75;;;1.70;;
58972;SDS011;44750;52.040;7.472;2022-11-15T19:44:26;2.47;;;1.58;;
58972;SDS011;44750;52.040;7.472;2022-11-15T19:49:26;2.28;;;1.73;;
58972;SDS011;44750;52.040;7.472;2022-11-15T19:54:26;2.22;;;1.83;;
58972;SDS011;44750;52.040;7.472;2022-11-15T19:59:27;1.98;;;1.55;;
58972;SDS011;44750;52.040;7.472;2022-11-15T20:04:27;2.50;;;1.80;;
58972;SDS011;44750;52.040;7.472;2022-11-15T20:09:27;2.80;;;1.52;;
58972;SDS011;44750;52.040;7.472;2022-11-15T20:14:28;4.97;;;2.00;;
58972;SDS011;44750;52.040;7.472;2022-11-15T20:19:28;2.05;;;1.02;;
58972;SDS011;44750;52.040;7.472;2022-11-15T20:24:28;2.35;;;1.17;;
58972;SDS011;44750;52.040;7.472;2022-11-15T20:29:28;3.00;;;1.35;;
58972;SDS011;44750;52.040;7.472;2022-11-15T20:34:29;2.53;;;1.27;;
58972;SDS011;44750;52.040;7.472;2022-11-15T20:39:29;0.88;;;0.88;;
58972;SDS011;44750;52.040;7.472;2022-11-15T20:44:29;1.90;;;0.88;;
58972;SDS011;44750;52.040;7.472;2022-11-15T20:49:29;1.38;;;0.95;;
58972;SDS011;44750;52.040;7.472;2022-11-15T20:54:30;0.88;;;0.73;;
58972;SDS011;44750;52.040;7.472;2022-11-15T20:59:30;1.55;;;0.80;;
58972;SDS011;44750;52.040;7.472;2022-11-15T21:04:30;0.80;;;0.80;;
58972;SDS011;44750;52.040;7.472;2022-11-15T21:09:30;1.23;;;0.90;;
58972;SDS011;44750;52.040;7.472;2022-11-15T21:14:31;0.80;;;0.80;;
58972;SDS011;44750;52.040;7.472;2022-11-15T21:19:31;1.13;;;0.75;;
58972;SDS011;44750;52.040;7.472;2022-11-15T21:24:31;1.73;;;1.00;;
58972;SDS011;44750;52.040;7.472;2022-11-15T21:29:31;1.83;;;1.40;;
58972;SDS011;44750;52.040;7.472;2022-11-15T21:34:32;1.20;;;0.75;;
58972;SDS011;44750;52.040;7.472;2022-11-15T21:39:32;2.60;;;1.20;;
58972;SDS011;44750;52.040;7.472;2022-11-15T21:44:32;2.22;;;1.30;;
58972;SDS011;44750;52.040;7.472;2022-11-15T21:49:32;1.27;;;0.70;;
58972;SDS011;44750;52.040;7.472;2022-11-15T21:54:33;1.30;;;1.00;;
58972;SDS011;44750;52.040;7.472;2022-11-15T21:59:33;1.27;;;0.98;;
58972;SDS011;44750;52.040;7.472;2022-11-15T22:04:36;1.13;;;0.90;;
58972;SDS011;44750;52.040;7.472;2022-11-15T22:09:36;0.70;;;0.70;;
58972;SDS011;44750;52.040;7.472;2022-11-15T22:14:36;2.67;;;1.27;;
58972;SDS011;44750;52.040;7.472;2022-11-15T22:19:36;2.88;;;1.42;;
58972;SDS011;44750;52.040;7.472;2022-11-15T22:24:36;1.20;;;1.10;;
58972;SDS011;44750;52.040;7.472;2022-11-15T22:29:37;0.82;;;0.77;;
58972;SDS011;44750;52.040;7.472;2022-11-15T22:34:37;0.93;;;0.75;;
58972;SDS011;44750;52.040;7.472;2022-11-15T22:39:37;2.22;;;1.25;;
58972;SDS011;44750;52.040;7.472;2022-11-15T22:44:37;2.97;;;1.10;;
58972;SDS011;44750;52.040;7.472;2022-11-15T22:49:38;1.20;;;1.10;;
58972;SDS011;44750;52.040;7.472;2022-11-15T22:54:38;2.47;;;1.20;;
58972;SDS011;44750;52.040;7.472;2022-11-15T22:59:38;2.22;;;1.25;;
58972;SDS011;44750;52.040;7.472;2022-11-15T23:04:41;1.15;;;0.98;;
58972;SDS011;44750;52.040;7.472;2022-11-15T23:09:42;1.95;;;1.23;;
58972;SDS011;44750;52.040;7.472;2022-11-15T23:14:43;1.48;;;1.25;;
58972;SDS011;44750;52.040;7.472;2022-11-15T23:19:44;2.28;;;1.08;;
58972;SDS011;44750;52.040;7.472;2022-11-15T23:24:44;1.58;;;1.00;;
58972;SDS011;44750;52.040;7.472;2022-11-15T23:29:45;0.63;;;0.63;;
58972;SDS011;44750;52.040;7.472;2022-11-15T23:34:45;3.97;;;0.90;;
58972;SDS011;44750;52.040;7.472;2022-11-15T23:39:45;2.17;;;1.25;;
58972;SDS011;44750;52.040;7.472;2022-11-15T23:44:47;5.05;;;1.17;;
58972;SDS011;44750;52.040;7.472;2022-11-15T23:49:47;1.05;;;0.90;;
58972;SDS011;44750;52.040;7.472;2022-11-15T23:54:48;1.20;;;0.82;;
58972;SDS011;44750;52.040;7.472;2022-11-15T23:59:48;1.17;;;0.90;;
